Home en_GB de_DE fr_FR  

22.10.17 22:32 UTC   Mobilseite
Preise
FAQ

 
TopMeteo
Benutzername Passwort  



Aktuelle Wetterbeobachtungen entlang der Route stehen nur registrierten Benutzern mit gültigem Abonnement zur Verfügung.

Wir zeigen Ihnen eine Auswahl an beliebigen Orten an. Zum Verständnis von METAR-Wettermeldungen siehe Wikipedia.


EDAH Heringsdorf TAF/S
15:50Z
221657Z 2216/2224 CNL
19004KT CAVOK 11/10 Q1010
EDDG Münster Osnabrück Flughafen TAF/L


21:50Z
221700Z 2218/2318 24011KT 9999 BKN020
TEMPO 2222/2303 RA BKN012 PROB40 ; TEMPO 2223/2303 BKN008 ; TEMPO 2303/2309 BKN012
TEMPO 2308/2312 27015G25KT ; BECMG 2316/2318 25006KT
22011KT 9999 FEW012 BKN016 10/07 Q1013 TEMPO BKN012
KBUF Greater Buffalo International TAF/L



21:54Z
AMD 222101Z 2221/2318 21007KT P6SM SCT250
FM222300 16006KT P6SM SCT250
FM230400 17010KT P6SM SCT250
FM231400 17014KT P6SM SCT250
16004KT 10SM SCT170 BKN200 BKN250 24/10 A3016 RMK AO2 SLP211 T02390100
KPIT Greater Pittsburgh International TAF/L


21:51Z
AMD 222142Z 2222/2324 17006KT P6SM SCT120
FM231300 14007KT P6SM BKN090
FM232000 15011KT 6SM -SHRA OVC050
16003KT 10SM SCT100 BKN250 23/09 A3018 RMK AO2 SLP225 T02280089
KAXH Houston Southwest 21:55Z AUTO 34006KT 10SM SCT034 23/15 A3008 RMK AO2 T02260151
LIMC Milano/Malpensa TAF/L
21:50Z
221700Z 2218/2324 35013KT CAVOK
02009KT CAVOK 11/M02 Q1013 NOSIG
LOWK Klagenfurt-Flughafen TAF/L



21:50Z
221715Z 2218/2318 VRB02KT 8000 -RA SCT040 BKN070 TX11/2315Z TN06/2306Z
TEMPO 2218/2222 4000 RA BKN007 OVC040 PROB30 ; TEMPO 2218/2219 3000 TSRA BKN030 FEW030CB
BECMG 2222/2301 9999 NSW FEW050 BKN120 PROB40 ; TEMPO 2222/2308 0500 BCFG BKN003
TEMPO 2310/2317 36012G22KT
AUTO VRB01KT 9999 FEW090 BKN100 05/05 Q1014
FYWB Walvis Bay 22:00Z AUTO 23003KT //// // ////// 12/09 Q1018
FBFT Francistown TAF/S
19:00Z
220600Z 2209/2218 07015KT 9999 BKN020
11006KT CAVOK 23/15 Q1021

Data source: ftp://tgftp.nws.noaa.gov/SL.us008001
"Data is provided as a public service by NOAA's National Weather Service (NWS) and is considered public information and may be distributed or copied."
 
 
Nutzungsbedingungen
Impressum
Wir über uns
Modelllauf: 18 UTC - Vorhersage: Di 24.10.17 10:00